sensor_id;sensor_type;location;lat;lon;timestamp;P1;durP1;ratioP1;P2;durP2;ratioP2
75112;SDS011;63692;47.338;8.520;2023-10-19T07:09:40;26.55;;;16.77;;
75112;SDS011;63692;47.338;8.520;2023-10-19T07:12:07;25.33;;;16.20;;
75112;SDS011;63692;47.338;8.520;2023-10-19T07:14:33;24.60;;;17.25;;
75112;SDS011;63692;47.338;8.520;2023-10-19T07:16:58;24.50;;;17.42;;
75112;SDS011;63692;47.338;8.520;2023-10-19T07:19:24;25.05;;;17.42;;
75112;SDS011;63692;47.338;8.520;2023-10-19T07:21:50;24.70;;;16.98;;
75112;SDS011;63692;47.338;8.520;2023-10-19T07:24:23;24.50;;;16.50;;
75112;SDS011;63692;47.338;8.520;2023-10-19T07:26:49;25.50;;;16.20;;
75112;SDS011;63692;47.338;8.520;2023-10-19T07:29:19;27.05;;;16.10;;
75112;SDS011;63692;47.338;8.520;2023-10-19T07:31:45;23.48;;;16.10;;
75112;SDS011;63692;47.338;8.520;2023-10-19T07:34:11;24.50;;;16.58;;
75112;SDS011;63692;47.338;8.520;2023-10-19T07:36:40;22.52;;;15.40;;
75112;SDS011;63692;47.338;8.520;2023-10-19T07:39:07;26.75;;;15.52;;
75112;SDS011;63692;47.338;8.520;2023-10-19T07:41:39;22.80;;;15.90;;
75112;SDS011;63692;47.338;8.520;2023-10-19T07:44:05;20.83;;;15.75;;
75112;SDS011;63692;47.338;8.520;2023-10-19T07:46:31;25.05;;;16.58;;
75112;SDS011;63692;47.338;8.520;2023-10-19T07:48:57;24.95;;;16.40;;
75112;SDS011;63692;47.338;8.520;2023-10-19T07:51:24;23.30;;;16.42;;
75112;SDS011;63692;47.338;8.520;2023-10-19T07:53:50;23.02;;;16.60;;
75112;SDS011;63692;47.338;8.520;2023-10-19T07:56:16;25.33;;;16.52;;
75112;SDS011;63692;47.338;8.520;2023-10-19T07:58:42;22.15;;;15.60;;
75112;SDS011;63692;47.338;8.520;2023-10-19T08:01:08;21.90;;;15.00;;
75112;SDS011;63692;47.338;8.520;2023-10-19T08:03:33;25.55;;;17.38;;
75112;SDS011;63692;47.338;8.520;2023-10-19T08:06:00;23.10;;;15.90;;
75112;SDS011;63692;47.338;8.520;2023-10-19T08:08:25;23.67;;;16.55;;
75112;SDS011;63692;47.338;8.520;2023-10-19T08:10:58;25.08;;;16.70;;
75112;SDS011;63692;47.338;8.520;2023-10-19T08:13:24;23.88;;;15.80;;
75112;SDS011;63692;47.338;8.520;2023-10-19T08:15:51;23.95;;;16.02;;
75112;SDS011;63692;47.338;8.520;2023-10-19T08:18:16;24.13;;;15.88;;
75112;SDS011;63692;47.338;8.520;2023-10-19T08:20:43;20.20;;;13.52;;
75112;SDS011;63692;47.338;8.520;2023-10-19T08:23:10;20.48;;;13.15;;
75112;SDS011;63692;47.338;8.520;2023-10-19T08:25:39;21.88;;;14.02;;
75112;SDS011;63692;47.338;8.520;2023-10-19T08:28:05;19.10;;;12.63;;
75112;SDS011;63692;47.338;8.520;2023-10-19T08:30:31;19.80;;;13.63;;
75112;SDS011;63692;47.338;8.520;2023-10-19T08:32:59;25.50;;;15.07;;
75112;SDS011;63692;47.338;8.520;2023-10-19T08:35:25;20.00;;;14.52;;
75112;SDS011;63692;47.338;8.520;2023-10-19T08:37:55;22.73;;;15.65;;
75112;SDS011;63692;47.338;8.520;2023-10-19T08:40:24;22.85;;;15.15;;
75112;SDS011;63692;47.338;8.520;2023-10-19T08:42:52;23.52;;;13.80;;
75112;SDS011;63692;47.338;8.520;2023-10-19T08:45:18;19.58;;;12.50;;
75112;SDS011;63692;47.338;8.520;2023-10-19T08:47:53;21.30;;;12.43;;
75112;SDS011;63692;47.338;8.520;2023-10-19T08:50:28;16.67;;;11.05;;
75112;SDS011;63692;47.338;8.520;2023-10-19T08:52:55;19.17;;;11.45;;
75112;SDS011;63692;47.338;8.520;2023-10-19T08:55:22;19.25;;;12.70;;
75112;SDS011;63692;47.338;8.520;2023-10-19T08:57:48;18.27;;;11.93;;
75112;SDS011;63692;47.338;8.520;2023-10-19T09:00:15;16.60;;;11.70;;
75112;SDS011;63692;47.338;8.520;2023-10-19T09:02:47;21.65;;;14.13;;
75112;SDS011;63692;47.338;8.520;2023-10-19T09:05:13;24.75;;;14.38;;
75112;SDS011;63692;47.338;8.520;2023-10-19T09:07:47;21.15;;;12.75;;
75112;SDS011;63692;47.338;8.520;2023-10-19T09:10:20;20.23;;;14.38;;
75112;SDS011;63692;47.338;8.520;2023-10-19T09:12:57;16.52;;;10.55;;
75112;SDS011;63692;47.338;8.520;2023-10-19T09:15:25;18.42;;;11.68;;
75112;SDS011;63692;47.338;8.520;2023-10-19T09:17:51;18.83;;;13.52;;
75112;SDS011;63692;47.338;8.520;2023-10-19T09:20:20;20.55;;;14.15;;
75112;SDS011;63692;47.338;8.520;2023-10-19T09:22:52;24.08;;;15.73;;
75112;SDS011;63692;47.338;8.520;2023-10-19T09:25:19;20.17;;;14.60;;
75112;SDS011;63692;47.338;8.520;2023-10-19T09:27:46;23.80;;;15.30;;
75112;SDS011;63692;47.338;8.520;2023-10-19T09:30:12;26.35;;;15.55;;
75112;SDS011;63692;47.338;8.520;2023-10-19T09:32:43;22.70;;;14.75;;
75112;SDS011;63692;47.338;8.520;2023-10-19T09:35:15;18.40;;;12.80;;
75112;SDS011;63692;47.338;8.520;2023-10-19T09:37:44;18.23;;;12.98;;
75112;SDS011;63692;47.338;8.520;2023-10-19T09:40:10;24.25;;;14.13;;
75112;SDS011;63692;47.338;8.520;2023-10-19T09:42:40;17.55;;;12.35;;
75112;SDS011;63692;47.338;8.520;2023-10-19T09:45:11;17.92;;;10.38;;
75112;SDS011;63692;47.338;8.520;2023-10-19T09:47:41;15.93;;;11.50;;
75112;SDS011;63692;47.338;8.520;2023-10-19T09:50:10;18.87;;;13.30;;
75112;SDS011;63692;47.338;8.520;2023-10-19T09:52:36;18.42;;;11.55;;
75112;SDS011;63692;47.338;8.520;2023-10-19T09:55:12;24.92;;;13.45;;
75112;SDS011;63692;47.338;8.520;2023-10-19T10:00:18;22.10;;;14.05;;
75112;SDS011;63692;47.338;8.520;2023-10-19T10:02:50;18.25;;;11.57;;
75112;SDS011;63692;47.338;8.520;2023-10-19T10:10:42;16.17;;;11.40;;
75112;SDS011;63692;47.338;8.520;2023-10-19T10:13:35;18.75;;;11.15;;
75112;SDS011;63692;47.338;8.520;2023-10-19T10:16:03;13.73;;;9.40;;
75112;SDS011;63692;47.338;8.520;2023-10-19T10:18:32;19.58;;;10.65;;
75112;SDS011;63692;47.338;8.520;2023-10-19T10:21:06;13.68;;;9.23;;
75112;SDS011;63692;47.338;8.520;2023-10-19T10:23:43;16.73;;;10.05;;
75112;SDS011;63692;47.338;8.520;2023-10-19T10:26:12;14.02;;;9.88;;
75112;SDS011;63692;47.338;8.520;2023-10-19T10:28:50;16.67;;;10.25;;
75112;SDS011;63692;47.338;8.520;2023-10-19T10:31:51;15.55;;;10.35;;
75112;SDS011;63692;47.338;8.520;2023-10-19T10:37:00;14.70;;;9.55;;
75112;SDS011;63692;47.338;8.520;2023-10-19T10:39:27;14.15;;;8.93;;
75112;SDS011;63692;47.338;8.520;2023-10-19T10:41:55;15.07;;;9.30;;
75112;SDS011;63692;47.338;8.520;2023-10-19T10:44:40;16.13;;;9.18;;
75112;SDS011;63692;47.338;8.520;2023-10-19T10:47:17;15.98;;;7.55;;
75112;SDS011;63692;47.338;8.520;2023-10-19T10:49:54;16.75;;;8.40;;
75112;SDS011;63692;47.338;8.520;2023-10-19T10:52:34;14.73;;;8.30;;
75112;SDS011;63692;47.338;8.520;2023-10-19T10:55:08;13.48;;;8.13;;
75112;SDS011;63692;47.338;8.520;2023-10-19T10:57:40;12.82;;;7.47;;
75112;SDS011;63692;47.338;8.520;2023-10-19T11:00:07;12.23;;;7.75;;
75112;SDS011;63692;47.338;8.520;2023-10-19T11:02:41;15.43;;;9.75;;
75112;SDS011;63692;47.338;8.520;2023-10-19T11:05:15;16.67;;;8.77;;
75112;SDS011;63692;47.338;8.520;2023-10-19T11:07:49;16.17;;;10.88;;
75112;SDS011;63692;47.338;8.520;2023-10-19T11:10:29;16.27;;;10.60;;
75112;SDS011;63692;47.338;8.520;2023-10-19T11:13:05;14.75;;;10.43;;
75112;SDS011;63692;47.338;8.520;2023-10-19T11:15:32;14.38;;;10.48;;
75112;SDS011;63692;47.338;8.520;2023-10-19T11:17:59;14.60;;;9.40;;
75112;SDS011;63692;47.338;8.520;2023-10-19T11:20:25;12.93;;;8.75;;
75112;SDS011;63692;47.338;8.520;2023-10-19T11:22:53;13.18;;;8.30;;
75112;SDS011;63692;47.338;8.520;2023-10-19T11:25:25;12.35;;;8.27;;
75112;SDS011;63692;47.338;8.520;2023-10-19T11:27:59;12.85;;;8.13;;
75112;SDS011;63692;47.338;8.520;2023-10-19T11:30:27;12.25;;;7.60;;
75112;SDS011;63692;47.338;8.520;2023-10-19T11:32:54;14.27;;;8.35;;
75112;SDS011;63692;47.338;8.520;2023-10-19T11:35:24;13.73;;;8.25;;
75112;SDS011;63692;47.338;8.520;2023-10-19T11:37:51;12.98;;;8.85;;
75112;SDS011;63692;47.338;8.520;2023-10-19T11:40:18;17.13;;;8.43;;
75112;SDS011;63692;47.338;8.520;2023-10-19T11:42:48;15.02;;;8.07;;
75112;SDS011;63692;47.338;8.520;2023-10-19T11:45:14;16.17;;;8.35;;
75112;SDS011;63692;47.338;8.520;2023-10-19T11:47:41;15.50;;;8.98;;
75112;SDS011;63692;47.338;8.520;2023-10-19T11:50:13;13.20;;;8.07;;
75112;SDS011;63692;47.338;8.520;2023-10-19T11:52:43;11.80;;;7.95;;
75112;SDS011;63692;47.338;8.520;2023-10-19T11:55:13;13.45;;;8.00;;
75112;SDS011;63692;47.338;8.520;2023-10-19T11:57:40;13.82;;;7.15;;
75112;SDS011;63692;47.338;8.520;2023-10-19T12:00:09;14.45;;;7.28;;
75112;SDS011;63692;47.338;8.520;2023-10-19T12:02:39;11.63;;;7.07;;
75112;SDS011;63692;47.338;8.520;2023-10-19T12:05:08;12.15;;;6.80;;
75112;SDS011;63692;47.338;8.520;2023-10-19T12:07:37;11.57;;;6.32;;
75112;SDS011;63692;47.338;8.520;2023-10-19T12:10:04;10.90;;;6.35;;
75112;SDS011;63692;47.338;8.520;2023-10-19T12:12:34;12.60;;;6.60;;
75112;SDS011;63692;47.338;8.520;2023-10-19T12:15:03;12.45;;;6.00;;
75112;SDS011;63692;47.338;8.520;2023-10-19T12:17:33;11.30;;;6.05;;
75112;SDS011;63692;47.338;8.520;2023-10-19T12:19:59;8.95;;;5.47;;
75112;SDS011;63692;47.338;8.520;2023-10-19T12:22:25;10.88;;;5.22;;
75112;SDS011;63692;47.338;8.520;2023-10-19T12:24:57;13.45;;;5.13;;
75112;SDS011;63692;47.338;8.520;2023-10-19T12:27:24;8.23;;;4.28;;
75112;SDS011;63692;47.338;8.520;2023-10-19T12:29:50;9.52;;;4.18;;
75112;SDS011;63692;47.338;8.520;2023-10-19T12:32:17;7.68;;;4.10;;
75112;SDS011;63692;47.338;8.520;2023-10-19T12:34:43;10.38;;;4.38;;
75112;SDS011;63692;47.338;8.520;2023-10-19T12:37:09;8.68;;;4.85;;
75112;SDS011;63692;47.338;8.520;2023-10-19T12:39:37;9.13;;;5.03;;
75112;SDS011;63692;47.338;8.520;2023-10-19T12:42:14;9.85;;;4.43;;
75112;SDS011;63692;47.338;8.520;2023-10-19T12:44:40;7.07;;;4.53;;
75112;SDS011;63692;47.338;8.520;2023-10-19T12:47:08;8.35;;;4.82;;
75112;SDS011;63692;47.338;8.520;2023-10-19T12:49:37;10.35;;;5.43;;
75112;SDS011;63692;47.338;8.520;2023-10-19T12:52:07;10.13;;;5.13;;
75112;SDS011;63692;47.338;8.520;2023-10-19T12:54:34;9.65;;;4.85;;
75112;SDS011;63692;47.338;8.520;2023-10-19T12:57:01;12.70;;;6.70;;
75112;SDS011;63692;47.338;8.520;2023-10-19T12:59:28;12.35;;;7.45;;
75112;SDS011;63692;47.338;8.520;2023-10-19T13:01:58;13.52;;;8.00;;
75112;SDS011;63692;47.338;8.520;2023-10-19T13:04:24;11.38;;;8.32;;
75112;SDS011;63692;47.338;8.520;2023-10-19T13:06:50;15.23;;;10.40;;
75112;SDS011;63692;47.338;8.520;2023-10-19T13:09:17;15.23;;;10.50;;
75112;SDS011;63692;47.338;8.520;2023-10-19T13:11:55;14.43;;;9.65;;
75112;SDS011;63692;47.338;8.520;2023-10-19T13:14:24;14.65;;;9.05;;
75112;SDS011;63692;47.338;8.520;2023-10-19T13:16:51;20.00;;;8.13;;
75112;SDS011;63692;47.338;8.520;2023-10-19T13:19:18;14.07;;;8.90;;
75112;SDS011;63692;47.338;8.520;2023-10-19T13:21:46;14.30;;;8.75;;
75112;SDS011;63692;47.338;8.520;2023-10-19T13:24:15;16.70;;;10.32;;
75112;SDS011;63692;47.338;8.520;2023-10-19T13:26:43;12.65;;;8.45;;
75112;SDS011;63692;47.338;8.520;2023-10-19T13:29:12;13.88;;;6.82;;
75112;SDS011;63692;47.338;8.520;2023-10-19T13:31:38;15.57;;;7.68;;
75112;SDS011;63692;47.338;8.520;2023-10-19T13:34:04;13.27;;;7.60;;
75112;SDS011;63692;47.338;8.520;2023-10-19T13:36:35;13.75;;;7.78;;
75112;SDS011;63692;47.338;8.520;2023-10-19T13:39:01;10.68;;;7.18;;
75112;SDS011;63692;47.338;8.520;2023-10-19T13:41:28;13.43;;;7.38;;
75112;SDS011;63692;47.338;8.520;2023-10-19T13:43:54;12.13;;;6.40;;
75112;SDS011;63692;47.338;8.520;2023-10-19T13:46:20;10.73;;;6.13;;
75112;SDS011;63692;47.338;8.520;2023-10-19T13:48:48;14.07;;;6.88;;
75112;SDS011;63692;47.338;8.520;2023-10-19T13:51:15;10.90;;;6.25;;
75112;SDS011;63692;47.338;8.520;2023-10-19T13:53:44;10.10;;;6.47;;
75112;SDS011;63692;47.338;8.520;2023-10-19T13:56:10;11.15;;;6.15;;
75112;SDS011;63692;47.338;8.520;2023-10-19T13:58:36;14.07;;;5.45;;
75112;SDS011;63692;47.338;8.520;2023-10-19T14:01:02;12.13;;;5.65;;
75112;SDS011;63692;47.338;8.520;2023-10-19T14:03:34;10.07;;;5.88;;
75112;SDS011;63692;47.338;8.520;2023-10-19T14:05:59;11.63;;;6.07;;
75112;SDS011;63692;47.338;8.520;2023-10-19T14:08:25;10.98;;;5.45;;
75112;SDS011;63692;47.338;8.520;2023-10-19T14:10:51;9.77;;;5.60;;
75112;SDS011;63692;47.338;8.520;2023-10-19T14:13:16;9.80;;;6.10;;
75112;SDS011;63692;47.338;8.520;2023-10-19T14:15:42;9.75;;;6.07;;
75112;SDS011;63692;47.338;8.520;2023-10-19T14:18:09;13.07;;;6.13;;
75112;SDS011;63692;47.338;8.520;2023-10-19T14:20:36;12.38;;;6.05;;
75112;SDS011;63692;47.338;8.520;2023-10-19T14:23:04;9.38;;;6.32;;
75112;SDS011;63692;47.338;8.520;2023-10-19T14:25:30;12.88;;;7.03;;
75112;SDS011;63692;47.338;8.520;2023-10-19T14:27:56;11.40;;;6.70;;
75112;SDS011;63692;47.338;8.520;2023-10-19T14:30:25;10.55;;;6.72;;
75112;SDS011;63692;47.338;8.520;2023-10-19T14:32:53;13.70;;;7.53;;
75112;SDS011;63692;47.338;8.520;2023-10-19T14:35:19;10.90;;;6.95;;
75112;SDS011;63692;47.338;8.520;2023-10-19T14:37:50;10.13;;;7.35;;
75112;SDS011;63692;47.338;8.520;2023-10-19T14:40:20;12.85;;;7.25;;
75112;SDS011;63692;47.338;8.520;2023-10-19T14:42:54;12.70;;;7.18;;
75112;SDS011;63692;47.338;8.520;2023-10-19T14:45:24;11.82;;;7.88;;
75112;SDS011;63692;47.338;8.520;2023-10-19T14:47:51;12.50;;;7.65;;
75112;SDS011;63692;47.338;8.520;2023-10-19T14:50:19;11.77;;;7.57;;
75112;SDS011;63692;47.338;8.520;2023-10-19T14:52:45;14.45;;;7.43;;
75112;SDS011;63692;47.338;8.520;2023-10-19T14:55:13;10.82;;;7.43;;
75112;SDS011;63692;47.338;8.520;2023-10-19T14:57:41;10.38;;;7.32;;
75112;SDS011;63692;47.338;8.520;2023-10-19T15:00:09;13.18;;;7.45;;
75112;SDS011;63692;47.338;8.520;2023-10-19T15:02:47;12.00;;;7.90;;
75112;SDS011;63692;47.338;8.520;2023-10-19T15:05:15;12.60;;;7.70;;
75112;SDS011;63692;47.338;8.520;2023-10-19T15:07:41;13.70;;;8.30;;
75112;SDS011;63692;47.338;8.520;2023-10-19T15:10:11;13.50;;;7.30;;
75112;SDS011;63692;47.338;8.520;2023-10-19T15:12:38;11.88;;;7.68;;
75112;SDS011;63692;47.338;8.520;2023-10-19T15:15:05;17.30;;;7.65;;
75112;SDS011;63692;47.338;8.520;2023-10-19T15:17:34;9.43;;;6.95;;
75112;SDS011;63692;47.338;8.520;2023-10-19T15:20:03;13.63;;;7.93;;
75112;SDS011;63692;47.338;8.520;2023-10-19T15:22:35;17.48;;;7.57;;
75112;SDS011;63692;47.338;8.520;2023-10-19T15:25:04;15.48;;;7.90;;
75112;SDS011;63692;47.338;8.520;2023-10-19T15:27:33;10.65;;;7.43;;
75112;SDS011;63692;47.338;8.520;2023-10-19T15:30:02;16.70;;;7.57;;
75112;SDS011;63692;47.338;8.520;2023-10-19T15:32:30;13.20;;;7.72;;
75112;SDS011;63692;47.338;8.520;2023-10-19T15:34:56;10.85;;;7.45;;
75112;SDS011;63692;47.338;8.520;2023-10-19T15:37:22;11.27;;;7.97;;
75112;SDS011;63692;47.338;8.520;2023-10-19T15:39:51;12.43;;;7.75;;
75112;SDS011;63692;47.338;8.520;2023-10-19T15:42:17;12.43;;;7.57;;
75112;SDS011;63692;47.338;8.520;2023-10-19T15:44:44;14.35;;;8.20;;
75112;SDS011;63692;47.338;8.520;2023-10-19T15:47:10;10.68;;;7.45;;
75112;SDS011;63692;47.338;8.520;2023-10-19T15:49:42;12.52;;;8.57;;
75112;SDS011;63692;47.338;8.520;2023-10-19T15:52:13;12.02;;;7.78;;
75112;SDS011;63692;47.338;8.520;2023-10-19T15:54:39;11.57;;;7.55;;
75112;SDS011;63692;47.338;8.520;2023-10-19T15:57:04;12.30;;;7.90;;
75112;SDS011;63692;47.338;8.520;2023-10-19T15:59:30;10.65;;;7.65;;
75112;SDS011;63692;47.338;8.520;2023-10-19T16:01:56;9.60;;;6.78;;
75112;SDS011;63692;47.338;8.520;2023-10-19T16:04:22;11.50;;;7.70;;
75112;SDS011;63692;47.338;8.520;2023-10-19T16:06:48;12.50;;;7.95;;
75112;SDS011;63692;47.338;8.520;2023-10-19T16:09:14;12.40;;;7.22;;
75112;SDS011;63692;47.338;8.520;2023-10-19T16:11:41;11.52;;;7.80;;
75112;SDS011;63692;47.338;8.520;2023-10-19T16:14:06;10.88;;;7.57;;
75112;SDS011;63692;47.338;8.520;2023-10-19T16:16:32;13.65;;;7.53;;
75112;SDS011;63692;47.338;8.520;2023-10-19T16:18:58;12.10;;;8.25;;
75112;SDS011;63692;47.338;8.520;2023-10-19T16:21:23;15.32;;;8.13;;
75112;SDS011;63692;47.338;8.520;2023-10-19T16:23:50;11.00;;;7.10;;
75112;SDS011;63692;47.338;8.520;2023-10-19T16:26:16;11.15;;;7.20;;
75112;SDS011;63692;47.338;8.520;2023-10-19T16:28:41;17.45;;;8.02;;
75112;SDS011;63692;47.338;8.520;2023-10-19T16:31:07;11.85;;;7.30;;
75112;SDS011;63692;47.338;8.520;2023-10-19T16:33:36;14.23;;;7.45;;
75112;SDS011;63692;47.338;8.520;2023-10-19T16:36:02;11.80;;;7.85;;
75112;SDS011;63692;47.338;8.520;2023-10-19T16:38:28;15.25;;;8.05;;
75112;SDS011;63692;47.338;8.520;2023-10-19T16:41:00;9.98;;;6.90;;
75112;SDS011;63692;47.338;8.520;2023-10-19T16:43:26;12.27;;;7.53;;
75112;SDS011;63692;47.338;8.520;2023-10-19T16:45:53;9.57;;;7.00;;
75112;SDS011;63692;47.338;8.520;2023-10-19T16:48:19;11.00;;;6.97;;
75112;SDS011;63692;47.338;8.520;2023-10-19T16:50:45;11.98;;;7.07;;
75112;SDS011;63692;47.338;8.520;2023-10-19T16:53:11;12.20;;;6.80;;
75112;SDS011;63692;47.338;8.520;2023-10-19T16:55:37;10.32;;;7.05;;
75112;SDS011;63692;47.338;8.520;2023-10-19T16:58:03;9.77;;;6.80;;
75112;SDS011;63692;47.338;8.520;2023-10-19T17:00:31;13.43;;;6.88;;
75112;SDS011;63692;47.338;8.520;2023-10-19T17:02:58;9.95;;;6.07;;
75112;SDS011;63692;47.338;8.520;2023-10-19T17:05:24;11.23;;;6.50;;
75112;SDS011;63692;47.338;8.520;2023-10-19T17:07:53;9.90;;;6.45;;
75112;SDS011;63692;47.338;8.520;2023-10-19T17:10:20;10.13;;;6.18;;
75112;SDS011;63692;47.338;8.520;2023-10-19T17:12:46;10.80;;;6.32;;
75112;SDS011;63692;47.338;8.520;2023-10-19T17:15:12;9.88;;;6.38;;
75112;SDS011;63692;47.338;8.520;2023-10-19T17:17:38;9.38;;;6.45;;
75112;SDS011;63692;47.338;8.520;2023-10-19T17:20:04;12.20;;;6.82;;
75112;SDS011;63692;47.338;8.520;2023-10-19T17:22:33;9.70;;;6.50;;
75112;SDS011;63692;47.338;8.520;2023-10-19T17:24:59;11.57;;;7.05;;
75112;SDS011;63692;47.338;8.520;2023-10-19T17:27:25;12.85;;;7.30;;
75112;SDS011;63692;47.338;8.520;2023-10-19T17:29:50;10.90;;;6.82;;
75112;SDS011;63692;47.338;8.520;2023-10-19T17:32:16;11.93;;;7.55;;
75112;SDS011;63692;47.338;8.520;2023-10-19T17:34:42;11.55;;;7.55;;
75112;SDS011;63692;47.338;8.520;2023-10-19T17:37:08;11.90;;;7.85;;
75112;SDS011;63692;47.338;8.520;2023-10-19T17:39:33;10.90;;;7.55;;
75112;SDS011;63692;47.338;8.520;2023-10-19T17:41:59;10.07;;;7.22;;
75112;SDS011;63692;47.338;8.520;2023-10-19T17:44:26;11.93;;;6.97;;
75112;SDS011;63692;47.338;8.520;2023-10-19T17:46:52;11.15;;;7.13;;
75112;SDS011;63692;47.338;8.520;2023-10-19T17:49:17;11.40;;;7.20;;
75112;SDS011;63692;47.338;8.520;2023-10-19T17:51:44;13.38;;;6.65;;
75112;SDS011;63692;47.338;8.520;2023-10-19T17:54:10;12.45;;;7.97;;
75112;SDS011;63692;47.338;8.520;2023-10-19T17:56:36;14.77;;;8.45;;
75112;SDS011;63692;47.338;8.520;2023-10-19T17:59:02;10.95;;;7.47;;
75112;SDS011;63692;47.338;8.520;2023-10-19T18:01:29;9.45;;;6.78;;
75112;SDS011;63692;47.338;8.520;2023-10-19T18:03:55;8.52;;;6.75;;
75112;SDS011;63692;47.338;8.520;2023-10-19T18:06:21;10.85;;;7.00;;
75112;SDS011;63692;47.338;8.520;2023-10-19T18:08:47;12.82;;;6.93;;
75112;SDS011;63692;47.338;8.520;2023-10-19T18:11:14;10.18;;;6.57;;
75112;SDS011;63692;47.338;8.520;2023-10-19T18:13:41;8.98;;;6.50;;
75112;SDS011;63692;47.338;8.520;2023-10-19T18:16:06;13.43;;;7.13;;
75112;SDS011;63692;47.338;8.520;2023-10-19T18:21:09;9.38;;;6.68;;
75112;SDS011;63692;47.338;8.520;2023-10-19T18:23:42;11.80;;;6.45;;
